createdAt,value
2018-06-23T00:00:25.984Z,89.50
2018-06-23T00:05:32.418Z,90.30
2018-06-23T00:10:37.137Z,89.90
2018-06-23T00:15:41.990Z,90.00
2018-06-23T00:20:46.842Z,90.60
2018-06-23T00:25:57.006Z,90.80
2018-06-23T00:31:01.845Z,90.30
2018-06-23T00:36:06.800Z,89.90
2018-06-23T00:41:11.409Z,90.20
2018-06-23T00:46:16.039Z,90.60
2018-06-23T00:51:21.176Z,91.20
2018-06-23T00:56:26.252Z,91.40
2018-06-23T01:01:30.959Z,92.00
2018-06-23T01:06:35.835Z,92.40
2018-06-23T01:11:40.452Z,92.90
2018-06-23T01:16:45.201Z,93.50
2018-06-23T01:21:49.860Z,94.30
2018-06-23T01:26:54.572Z,94.60
2018-06-23T01:32:00.479Z,94.80
2018-06-23T01:37:05.421Z,95.20
2018-06-23T01:42:10.044Z,95.10
2018-06-23T01:47:14.899Z,95.50
2018-06-23T01:52:19.736Z,95.80
2018-06-23T01:57:24.674Z,96.30
2018-06-23T02:02:29.771Z,97.10
2018-06-23T02:07:34.688Z,97.70
2018-06-23T02:12:39.282Z,97.50
2018-06-23T02:17:49.254Z,97.80
2018-06-23T02:22:59.098Z,97.60
2018-06-23T02:28:09.046Z,97.30
2018-06-23T02:33:18.796Z,97.80
2018-06-23T02:38:23.501Z,98.30
2018-06-23T02:43:28.242Z,98.20
2018-06-23T02:48:33.063Z,98.80
2018-06-23T02:53:37.777Z,99.10
2018-06-23T02:58:42.549Z,99.10
2018-06-23T03:03:47.727Z,99.10
2018-06-23T03:08:52.366Z,98.70
2018-06-23T03:13:57.507Z,98.40
2018-06-23T03:19:02.136Z,98.60
2018-06-23T03:24:06.993Z,98.90
2018-06-23T03:29:12.534Z,99.20
2018-06-23T03:34:17.244Z,99.40
2018-06-23T03:39:22.137Z,99.40
2018-06-23T03:44:26.992Z,98.90
2018-06-23T03:49:31.593Z,98.80
2018-06-23T03:54:36.479Z,99.00
2018-06-23T03:59:41.081Z,99.20
2018-06-23T04:04:45.968Z,99.60
2018-06-23T04:09:50.700Z,99.60
2018-06-23T04:14:55.523Z,99.40
2018-06-23T04:20:00.499Z,99.40
2018-06-23T04:25:05.200Z,99.50
2018-06-23T04:30:10.395Z,99.00
2018-06-23T04:35:15.090Z,98.70
2018-06-23T04:40:19.914Z,96.60
2018-06-23T04:45:24.697Z,96.30
2018-06-23T04:50:30.052Z,95.60
2018-06-23T04:55:34.894Z,95.00
2018-06-23T05:00:39.768Z,94.30
2018-06-23T05:05:44.451Z,93.40
2018-06-23T05:10:49.630Z,92.90
2018-06-23T05:15:54.271Z,91.30
2018-06-23T05:20:59.839Z,90.20
2018-06-23T05:26:04.796Z,89.00
2018-06-23T05:31:09.735Z,88.00
2018-06-23T05:36:14.670Z,86.50
2018-06-23T05:41:20.024Z,86.00
2018-06-23T05:46:24.865Z,85.30
2018-06-23T05:51:29.633Z,86.00
2018-06-23T05:56:34.674Z,85.40
2018-06-23T06:01:39.413Z,85.90
2018-06-23T06:06:44.239Z,85.70
2018-06-23T06:11:49.011Z,85.70
2018-06-23T06:17:31.247Z,84.50
2018-06-23T06:22:37.931Z,83.70
2018-06-23T06:27:42.978Z,84.10
2018-06-23T06:32:47.921Z,83.80
2018-06-23T06:37:52.837Z,83.30
2018-06-23T06:48:02.117Z,82.20
2018-06-23T06:53:07.992Z,81.10
2018-06-23T06:58:21.598Z,81.40
2018-06-23T07:03:27.665Z,80.50
2018-06-23T07:08:32.546Z,80.30
2018-06-23T07:13:37.819Z,78.90
2018-06-23T07:18:42.794Z,77.80
2018-06-23T07:23:49.987Z,78.80
2018-06-23T07:28:55.158Z,78.40
2018-06-23T07:33:59.829Z,77.70
2018-06-23T07:39:06.541Z,77.30
2018-06-23T07:44:11.359Z,76.10
2018-06-23T07:49:16.072Z,75.90
2018-06-23T07:54:20.748Z,76.90
2018-06-23T07:59:25.584Z,77.10
2018-06-23T08:04:30.935Z,76.10
2018-06-23T08:09:35.718Z,74.50
2018-06-23T08:14:40.646Z,74.40
2018-06-23T08:19:45.593Z,74.20
2018-06-23T08:24:50.350Z,75.50
2018-06-23T08:29:55.461Z,78.20
2018-06-23T08:35:01.732Z,79.20
2018-06-23T08:40:06.608Z,80.40
2018-06-23T08:45:11.634Z,80.50
2018-06-23T08:50:16.380Z,80.90
2018-06-23T08:56:23.992Z,81.40
2018-06-23T09:01:28.867Z,81.70
2018-06-23T09:06:33.431Z,80.60
2018-06-23T09:11:38.672Z,78.80
2018-06-23T09:16:43.626Z,78.30
2018-06-23T09:21:48.291Z,76.00
2018-06-23T09:26:58.018Z,77.00
2018-06-23T09:32:04.276Z,77.30
2018-06-23T09:37:09.095Z,75.90
2018-06-23T09:42:14.424Z,75.40
2018-06-23T09:47:19.962Z,75.00
2018-06-23T09:52:24.935Z,76.30
2018-06-23T09:57:29.544Z,71.00
2018-06-23T10:02:35.076Z,73.90
2018-06-23T10:07:39.692Z,72.90
2018-06-23T10:12:44.411Z,73.70
2018-06-23T10:17:49.148Z,72.20
2018-06-23T10:22:53.945Z,71.80
2018-06-23T10:27:58.635Z,73.20
2018-06-23T10:33:04.691Z,73.00
2018-06-23T10:38:09.682Z,71.60
2018-06-23T10:43:14.405Z,70.00
2018-06-23T10:48:19.251Z,67.50
2018-06-23T10:53:24.124Z,67.30
2018-06-23T10:58:28.964Z,68.90
2018-06-23T11:03:33.865Z,69.10
2018-06-23T11:08:38.497Z,70.00
2018-06-23T11:13:43.268Z,70.40
2018-06-23T11:18:48.117Z,70.10
2018-06-23T11:29:12.441Z,69.20
2018-06-23T11:34:18.009Z,69.70
2018-06-23T11:39:22.739Z,69.80
2018-06-23T11:44:27.600Z,68.20
2018-06-23T11:49:32.436Z,68.80
2018-06-23T11:54:37.191Z,68.20
2018-06-23T11:59:41.886Z,66.00
2018-06-23T12:04:46.888Z,66.80
2018-06-23T12:09:51.915Z,65.40
2018-06-23T12:14:57.407Z,64.20
2018-06-23T12:20:02.650Z,63.70
2018-06-23T12:25:07.607Z,60.90
2018-06-23T12:30:12.387Z,61.00
2018-06-23T12:35:17.269Z,58.70
2018-06-23T12:40:22.131Z,57.50
2018-06-23T12:45:26.928Z,57.00
2018-06-23T12:50:32.297Z,57.60
2018-06-23T12:55:37.134Z,57.50
2018-06-23T13:00:42.003Z,57.10
2018-06-23T13:05:46.727Z,55.30
2018-06-23T13:10:51.330Z,55.30
2018-06-23T13:15:56.939Z,55.40
2018-06-23T13:21:01.811Z,54.30
2018-06-23T13:26:07.035Z,53.50
2018-06-23T13:31:12.201Z,54.60
2018-06-23T13:36:17.065Z,54.80
2018-06-23T13:41:21.871Z,54.50
2018-06-23T13:46:26.511Z,54.10
2018-06-23T13:51:31.432Z,54.50
2018-06-23T13:56:36.298Z,54.20
2018-06-23T14:01:41.304Z,53.30
2018-06-23T14:06:46.050Z,53.70
2018-06-23T14:11:50.998Z,53.10
2018-06-23T14:16:56.272Z,53.30
2018-06-23T14:22:02.124Z,53.60
2018-06-23T14:27:07.325Z,55.20
2018-06-23T14:32:12.434Z,53.90
2018-06-23T14:37:19.336Z,53.10
2018-06-23T14:42:24.154Z,53.10
2018-06-23T14:47:29.089Z,51.70
2018-06-23T14:52:33.959Z,51.60
2018-06-23T14:57:39.464Z,52.00
2018-06-23T15:02:44.469Z,52.60
2018-06-23T15:07:49.139Z,52.70
2018-06-23T15:13:05.145Z,51.80
2018-06-23T15:18:10.182Z,51.20
2018-06-23T15:23:15.508Z,51.90
2018-06-23T15:28:20.358Z,51.70
2018-06-23T15:33:25.208Z,50.90
2018-06-23T15:38:29.878Z,50.70
2018-06-23T15:43:36.613Z,50.20
2018-06-23T15:48:41.799Z,50.50
2018-06-23T15:53:47.251Z,49.90
2018-06-23T15:58:52.304Z,50.50
2018-06-23T16:03:57.342Z,50.20
2018-06-23T16:09:02.193Z,51.40
2018-06-23T16:14:07.046Z,51.60
2018-06-23T16:19:14.249Z,52.50
2018-06-23T16:24:19.701Z,53.10
2018-06-23T16:29:24.834Z,54.10
2018-06-23T16:34:29.822Z,52.20
2018-06-23T16:39:34.489Z,56.30
2018-06-23T16:44:39.349Z,59.20
2018-06-23T16:49:44.324Z,60.20
2018-06-23T16:54:49.276Z,59.10
2018-06-23T16:59:54.084Z,59.70
2018-06-23T17:04:58.878Z,60.70
2018-06-23T17:10:04.040Z,62.80
2018-06-23T17:15:08.877Z,63.60
2018-06-23T17:20:13.840Z,64.50
2018-06-23T17:25:18.831Z,64.20
2018-06-23T17:30:23.875Z,64.10
2018-06-23T17:35:28.849Z,64.60
2018-06-23T17:40:33.778Z,64.40
2018-06-23T17:45:38.764Z,64.70
2018-06-23T17:50:43.564Z,65.00
2018-06-23T17:55:48.429Z,65.90
2018-06-23T18:00:53.415Z,66.40
2018-06-23T18:05:58.280Z,66.00
2018-06-23T18:11:03.909Z,66.30
2018-06-23T18:16:09.040Z,67.40
2018-06-23T18:21:14.464Z,67.50
2018-06-23T18:26:19.216Z,68.10
2018-06-23T18:31:24.140Z,69.00
2018-06-23T18:36:29.570Z,69.20
2018-06-23T18:41:34.570Z,69.20
2018-06-23T18:46:39.500Z,69.80
2018-06-23T18:51:44.254Z,70.30
2018-06-23T18:56:49.201Z,70.60
2018-06-23T19:01:54.148Z,71.30
2018-06-23T19:06:59.664Z,72.20
2018-06-23T19:12:04.753Z,72.80
2018-06-23T19:17:09.868Z,73.20
2018-06-23T19:22:14.634Z,73.80
2018-06-23T19:27:19.604Z,73.60
2018-06-23T19:37:29.153Z,74.80
2018-06-23T19:42:33.923Z,74.90
2018-06-23T19:47:38.761Z,75.40
2018-06-23T19:52:43.627Z,76.00
2018-06-23T19:57:48.538Z,76.40
2018-06-23T20:02:53.465Z,76.60
2018-06-23T20:07:58.333Z,76.80
2018-06-23T20:13:03.197Z,76.80
2018-06-23T20:18:08.323Z,76.80
2018-06-23T20:23:13.470Z,77.10
2018-06-23T20:33:28.822Z,77.10
2018-06-23T20:38:33.768Z,77.00
2018-06-23T20:43:38.790Z,76.90
2018-06-23T20:48:44.327Z,77.00
2018-06-23T20:58:54.775Z,77.00
2018-06-23T21:03:59.622Z,76.90
2018-06-23T21:09:05.532Z,77.10
2018-06-23T21:14:10.401Z,77.50
2018-06-23T21:19:15.331Z,78.50
2018-06-23T21:24:20.914Z,79.60
2018-06-23T21:29:31.980Z,80.00
2018-06-23T21:34:37.260Z,79.80
2018-06-23T21:39:42.251Z,79.90
2018-06-23T21:44:47.078Z,79.70
2018-06-23T21:49:52.106Z,79.50
2018-06-23T21:54:57.534Z,79.30
2018-06-23T22:00:03.363Z,79.40
2018-06-23T22:05:08.266Z,79.40
2018-06-23T22:10:12.989Z,79.60
2018-06-23T22:15:17.805Z,79.30
2018-06-23T22:20:23.144Z,79.00
2018-06-23T22:25:28.165Z,79.10
2018-06-23T22:30:44.238Z,79.00
2018-06-23T22:35:49.702Z,79.30
2018-06-23T22:40:54.446Z,80.10
2018-06-23T22:45:59.317Z,80.90
2018-06-23T22:51:04.126Z,80.60
2018-06-23T22:56:08.982Z,80.60
2018-06-23T23:01:14.044Z,81.20
2018-06-23T23:06:18.690Z,81.60
2018-06-23T23:11:23.401Z,82.40
2018-06-23T23:16:29.259Z,82.30
2018-06-23T23:21:33.999Z,82.90
2018-06-23T23:26:39.075Z,83.20
2018-06-23T23:31:44.261Z,83.30
2018-06-23T23:36:49.080Z,85.40
2018-06-23T23:41:53.818Z,86.00
2018-06-23T23:46:58.657Z,86.70
2018-06-23T23:52:03.600Z,86.90
2018-06-23T23:57:08.514Z,87.00
